Skanee, Michigan
Current Conditions -  °F | °C
As of 8:53 AM on Friday 31 Oct 2014 (Local Time) from KCMX Reporting Station
Overcast Overcast  
Wind Chill: 20°   Ceiling: 3800
Heat Index: 30°   Visibility: 10mi
Dew Point: 19°   Wind: 13mph
Humidity: 64%   Direction: 20°NNE
Pressure: 30.37"   Gusts: 20mph
Location:  46.87°N, 88.21°W
Report Text: KCMX 311253Z AUTO 02011G17KT 10SM OVC038 M01/M07 A3037 RMK AO2 SNE27 SLP298 P0000 T10111072
Loading
Personal Weather Stations






























Interactive Weather Map
Tropical Storm Tracking
New forecast layout! Learn more

10-Day Weather Forecast

Advertisements
Track Severe Weather on mobile